Terminal Aerodrome Forecast
Issued by NWS

Home | Current Version | Previous Version | Text Only | Print | Product List | Glossary On
Versions: 1 2 3 4 5 6 7 8 9 10 11 12 13 14 15 16
000
FTUS45 KTFX 300500
TAFGTF
TAF
KGTF 300520Z 3006/3106 20008KT P6SM BKN150
     FM300900 23008KT P6SM VCSH BKN100
      TEMPO 3012/3016 -SHRA BKN060
     FM301600 23008KT P6SM SCT100 BKN150
     FM302100 25012KT P6SM VCSH SCT070
     FM310200 24010KT P6SM BKN200=

USA.gov is the U.S. government's official web portal to all federal, state and local government web resources and services.